sensor_id;sensor_type;location;lat;lon;timestamp;pressure;altitude;pressure_sealevel;temperature;humidity
62420;BME280;48460;51.616;5.426;2023-05-12T07:42:52;101509.53;;;16.47;100.00
62420;BME280;48460;51.616;5.426;2023-05-12T07:45:58;101510.97;;;16.66;100.00
62420;BME280;48460;51.616;5.426;2023-05-12T07:48:32;101511.56;;;16.56;100.00
62420;BME280;48460;51.616;5.426;2023-05-12T07:51:17;101523.56;;;16.76;100.00
62420;BME280;48460;51.616;5.426;2023-05-12T07:53:47;101519.22;;;16.88;100.00
62420;BME280;48460;51.616;5.426;2023-05-12T07:56:29;101524.25;;;16.93;100.00
62420;BME280;48460;51.616;5.426;2023-05-12T07:59:11;101525.81;;;16.82;100.00
62420;BME280;48460;51.616;5.426;2023-05-12T08:05:03;101522.53;;;16.92;100.00
62420;BME280;48460;51.616;5.426;2023-05-12T08:07:49;101514.59;;;17.17;100.00
62420;BME280;48460;51.616;5.426;2023-05-12T08:10:23;101523.09;;;17.48;98.00
62420;BME280;48460;51.616;5.426;2023-05-12T08:13:06;101529.13;;;17.63;98.30
62420;BME280;48460;51.616;5.426;2023-05-12T08:15:54;101537.31;;;17.72;97.12
62420;BME280;48460;51.616;5.426;2023-05-12T08:21:47;101526.09;;;17.43;98.63
62420;BME280;48460;51.616;5.426;2023-05-12T08:27:53;101541.38;;;17.14;99.05
62420;BME280;48460;51.616;5.426;2023-05-12T08:30:46;101560.06;;;17.13;98.75
62420;BME280;48460;51.616;5.426;2023-05-12T08:33:19;101546.69;;;17.14;98.57
62420;BME280;48460;51.616;5.426;2023-05-12T08:35:48;101541.06;;;17.44;96.59
62420;BME280;48460;51.616;5.426;2023-05-12T08:38:45;101541.47;;;17.89;97.52
62420;BME280;48460;51.616;5.426;2023-05-12T08:44:46;101559.53;;;19.17;85.65
62420;BME280;48460;51.616;5.426;2023-05-12T08:50:34;101556.09;;;18.93;85.10
62420;BME280;48460;51.616;5.426;2023-05-12T08:53:20;101555.00;;;18.71;81.61
62420;BME280;48460;51.616;5.426;2023-05-12T08:56:29;101557.50;;;18.85;88.39
62420;BME280;48460;51.616;5.426;2023-05-12T08:59:27;101560.19;;;18.97;81.70
62420;BME280;48460;51.616;5.426;2023-05-12T09:02:16;101573.56;;;19.08;81.80
62420;BME280;48460;51.616;5.426;2023-05-12T09:05:15;101574.44;;;19.20;85.99
62420;BME280;48460;51.616;5.426;2023-05-12T09:07:56;101565.16;;;19.48;87.28
62420;BME280;48460;51.616;5.426;2023-05-12T09:10:41;101568.81;;;19.58;82.52
62420;BME280;48460;51.616;5.426;2023-05-12T09:19:01;101562.00;;;20.10;76.84
62420;BME280;48460;51.616;5.426;2023-05-12T09:21:37;101571.84;;;20.10;78.67
62420;BME280;48460;51.616;5.426;2023-05-12T09:24:18;101575.50;;;20.20;76.38
62420;BME280;48460;51.616;5.426;2023-05-12T09:26:55;101580.53;;;20.57;76.46
62420;BME280;48460;51.616;5.426;2023-05-12T09:29:27;101579.06;;;21.06;73.07
62420;BME280;48460;51.616;5.426;2023-05-12T09:32:16;101581.59;;;21.39;75.44
62420;BME280;48460;51.616;5.426;2023-05-12T09:35:11;101569.00;;;21.09;67.60
62420;BME280;48460;51.616;5.426;2023-05-12T09:37:41;101564.59;;;20.87;68.25
62420;BME280;48460;51.616;5.426;2023-05-12T09:43:07;101572.56;;;20.99;70.70
62420;BME280;48460;51.616;5.426;2023-05-12T09:45:47;101567.34;;;21.18;70.01
62420;BME280;48460;51.616;5.426;2023-05-12T09:48:27;101583.47;;;21.28;67.51
62420;BME280;48460;51.616;5.426;2023-05-12T09:51:04;101585.16;;;21.08;68.09
62420;BME280;48460;51.616;5.426;2023-05-12T09:53:40;101579.59;;;21.00;68.66
62420;BME280;48460;51.616;5.426;2023-05-12T09:56:22;101585.97;;;20.87;69.08
62420;BME280;48460;51.616;5.426;2023-05-12T09:59:08;101588.56;;;21.10;72.31
62420;BME280;48460;51.616;5.426;2023-05-12T10:05:01;101593.25;;;21.90;65.00
62420;BME280;48460;51.616;5.426;2023-05-12T10:07:36;101580.34;;;22.55;63.97
62420;BME280;48460;51.616;5.426;2023-05-12T10:10:30;101589.63;;;22.90;62.23
62420;BME280;48460;51.616;5.426;2023-05-12T10:16:18;101590.78;;;22.58;57.55
62420;BME280;48460;51.616;5.426;2023-05-12T10:19:31;101582.97;;;22.36;59.34
62420;BME280;48460;51.616;5.426;2023-05-12T10:22:16;101595.72;;;22.82;60.78
62420;BME280;48460;51.616;5.426;2023-05-12T10:29:00;101591.09;;;23.60;58.87
62420;BME280;48460;51.616;5.426;2023-05-12T10:37:51;101594.59;;;23.04;56.79
62420;BME280;48460;51.616;5.426;2023-05-12T10:43:42;101599.66;;;23.27;54.91
62420;BME280;48460;51.616;5.426;2023-05-12T11:05:14;101610.84;;;23.12;57.38
62420;BME280;48460;51.616;5.426;2023-05-12T11:26:29;101623.69;;;25.21;51.86
62420;BME280;48460;51.616;5.426;2023-05-12T11:38:25;101633.22;;;24.07;51.89
62420;BME280;48460;51.616;5.426;2023-05-12T11:41:01;101636.69;;;23.90;54.05
62420;BME280;48460;51.616;5.426;2023-05-12T11:43:47;101634.59;;;24.11;51.97
62420;BME280;48460;51.616;5.426;2023-05-12T11:49:54;101648.16;;;23.92;50.04
62420;BME280;48460;51.616;5.426;2023-05-12T11:52:34;101656.38;;;23.61;45.69
62420;BME280;48460;51.616;5.426;2023-05-12T11:55:22;101649.97;;;23.15;46.54
62420;BME280;48460;51.616;5.426;2023-05-12T11:58:21;101644.16;;;23.29;46.67
62420;BME280;48460;51.616;5.426;2023-05-12T12:00:53;101657.03;;;22.96;47.22
62420;BME280;48460;51.616;5.426;2023-05-12T12:06:47;101658.28;;;22.33;50.84
62420;BME280;48460;51.616;5.426;2023-05-12T12:09:41;101653.28;;;22.49;49.38
62420;BME280;48460;51.616;5.426;2023-05-12T12:15:47;101661.41;;;23.93;48.52
62420;BME280;48460;51.616;5.426;2023-05-12T12:18:25;101672.75;;;24.24;45.50
62420;BME280;48460;51.616;5.426;2023-05-12T12:21:08;101665.31;;;24.36;45.84
62420;BME280;48460;51.616;5.426;2023-05-12T12:23:45;101668.81;;;24.74;46.15
62420;BME280;48460;51.616;5.426;2023-05-12T12:27:04;101662.97;;;25.50;47.81
62420;BME280;48460;51.616;5.426;2023-05-12T12:30:01;101669.44;;;26.18;43.63
62420;BME280;48460;51.616;5.426;2023-05-12T12:32:31;101671.50;;;26.32;41.80
62420;BME280;48460;51.616;5.426;2023-05-12T12:36:01;101673.13;;;25.82;44.16
62420;BME280;48460;51.616;5.426;2023-05-12T12:38:33;101666.34;;;25.34;43.79
62420;BME280;48460;51.616;5.426;2023-05-12T12:41:00;101673.28;;;25.37;45.60
62420;BME280;48460;51.616;5.426;2023-05-12T12:44:01;101665.78;;;25.22;45.17
62420;BME280;48460;51.616;5.426;2023-05-12T12:46:38;101667.22;;;25.35;43.41
62420;BME280;48460;51.616;5.426;2023-05-12T12:49:09;101674.97;;;26.16;46.06
62420;BME280;48460;51.616;5.426;2023-05-12T12:51:36;101669.28;;;25.85;43.39
62420;BME280;48460;51.616;5.426;2023-05-12T12:54:11;101675.88;;;25.73;43.39
62420;BME280;48460;51.616;5.426;2023-05-12T12:57:01;101676.34;;;25.42;45.15
62420;BME280;48460;51.616;5.426;2023-05-12T12:59:32;101665.75;;;24.87;47.12
62420;BME280;48460;51.616;5.426;2023-05-12T13:02:20;101654.81;;;24.70;48.79
62420;BME280;48460;51.616;5.426;2023-05-12T13:05:06;101684.38;;;24.52;49.53
62420;BME280;48460;51.616;5.426;2023-05-12T13:11:07;101675.75;;;24.11;51.12
62420;BME280;48460;51.616;5.426;2023-05-12T13:17:00;101667.53;;;24.23;50.60
62420;BME280;48460;51.616;5.426;2023-05-12T13:22:46;101674.31;;;24.54;48.48
62420;BME280;48460;51.616;5.426;2023-05-12T13:25:44;101676.03;;;24.73;47.69
62420;BME280;48460;51.616;5.426;2023-05-12T13:28:21;101680.41;;;25.10;48.83
62420;BME280;48460;51.616;5.426;2023-05-12T13:30:56;101673.34;;;25.09;46.60
62420;BME280;48460;51.616;5.426;2023-05-12T13:33:22;101681.44;;;25.45;45.76
62420;BME280;48460;51.616;5.426;2023-05-12T13:35:48;101674.03;;;25.91;46.01
62420;BME280;48460;51.616;5.426;2023-05-12T13:38:21;101674.59;;;26.03;45.64
62420;BME280;48460;51.616;5.426;2023-05-12T13:40:54;101670.31;;;26.77;45.46
62420;BME280;48460;51.616;5.426;2023-05-12T13:45:57;101671.56;;;27.15;42.73
62420;BME280;48460;51.616;5.426;2023-05-12T13:48:33;101675.81;;;27.34;41.76
62420;BME280;48460;51.616;5.426;2023-05-12T13:51:02;101664.97;;;27.67;42.09
62420;BME280;48460;51.616;5.426;2023-05-12T13:53:29;101677.06;;;27.95;40.10
62420;BME280;48460;51.616;5.426;2023-05-12T13:56:04;101672.69;;;27.86;39.96
62420;BME280;48460;51.616;5.426;2023-05-12T13:58:30;101678.63;;;27.82;39.50
62420;BME280;48460;51.616;5.426;2023-05-12T14:00:59;101668.44;;;28.39;39.63
62420;BME280;48460;51.616;5.426;2023-05-12T14:03:40;101678.47;;;28.31;38.44
62420;BME280;48460;51.616;5.426;2023-05-12T14:06:07;101665.16;;;28.21;36.90
62420;BME280;48460;51.616;5.426;2023-05-12T14:08:37;101671.03;;;28.25;38.17
62420;BME280;48460;51.616;5.426;2023-05-12T14:11:06;101669.19;;;28.25;38.04
62420;BME280;48460;51.616;5.426;2023-05-12T14:13:34;101681.16;;;28.31;36.29
62420;BME280;48460;51.616;5.426;2023-05-12T14:16:04;101663.25;;;28.30;35.77
62420;BME280;48460;51.616;5.426;2023-05-12T14:18:41;101660.44;;;28.15;35.68
62420;BME280;48460;51.616;5.426;2023-05-12T14:21:16;101666.06;;;28.05;37.94
62420;BME280;48460;51.616;5.426;2023-05-12T14:23:45;101656.81;;;27.75;38.53
62420;BME280;48460;51.616;5.426;2023-05-12T14:26:13;101669.72;;;27.32;38.81
62420;BME280;48460;51.616;5.426;2023-05-12T14:28:39;101663.47;;;27.23;39.49
62420;BME280;48460;51.616;5.426;2023-05-12T14:31:24;101652.13;;;27.03;39.63
62420;BME280;48460;51.616;5.426;2023-05-12T14:33:52;101662.63;;;27.31;39.96
62420;BME280;48460;51.616;5.426;2023-05-12T14:36:27;101660.44;;;27.26;39.48
62420;BME280;48460;51.616;5.426;2023-05-12T14:39:02;101660.66;;;26.58;37.87
62420;BME280;48460;51.616;5.426;2023-05-12T14:41:30;101660.81;;;26.06;39.81
62420;BME280;48460;51.616;5.426;2023-05-12T14:43:59;101674.44;;;26.04;41.73
62420;BME280;48460;51.616;5.426;2023-05-12T14:46:24;101662.41;;;25.73;41.09
62420;BME280;48460;51.616;5.426;2023-05-12T14:48:53;101670.81;;;25.43;40.02
62420;BME280;48460;51.616;5.426;2023-05-12T14:51:20;101671.72;;;25.34;41.63
62420;BME280;48460;51.616;5.426;2023-05-12T14:53:49;101662.16;;;25.32;41.42
62420;BME280;48460;51.616;5.426;2023-05-12T14:56:25;101665.25;;;25.45;42.41
62420;BME280;48460;51.616;5.426;2023-05-12T14:58:50;101674.81;;;25.39;40.44
62420;BME280;48460;51.616;5.426;2023-05-12T15:01:18;101667.75;;;25.38;41.35
62420;BME280;48460;51.616;5.426;2023-05-12T15:03:45;101657.28;;;24.99;40.29
62420;BME280;48460;51.616;5.426;2023-05-12T15:06:23;101652.03;;;24.80;41.16
62420;BME280;48460;51.616;5.426;2023-05-12T15:08:51;101659.75;;;24.75;42.72
62420;BME280;48460;51.616;5.426;2023-05-12T15:11:36;101658.88;;;24.92;43.41
62420;BME280;48460;51.616;5.426;2023-05-12T15:14:12;101660.50;;;25.03;41.74
62420;BME280;48460;51.616;5.426;2023-05-12T15:16:46;101655.66;;;24.89;42.92
62420;BME280;48460;51.616;5.426;2023-05-12T15:19:51;101657.69;;;24.87;45.24
62420;BME280;48460;51.616;5.426;2023-05-12T15:22:30;101668.34;;;24.61;43.34
62420;BME280;48460;51.616;5.426;2023-05-12T15:25:08;101663.88;;;24.51;43.83
62420;BME280;48460;51.616;5.426;2023-05-12T15:27:59;101665.44;;;24.44;45.68
62420;BME280;48460;51.616;5.426;2023-05-12T15:30:30;101655.25;;;24.38;45.36
62420;BME280;48460;51.616;5.426;2023-05-12T15:32:59;101666.16;;;24.09;46.07
62420;BME280;48460;51.616;5.426;2023-05-12T15:35:39;101662.00;;;23.87;46.23
62420;BME280;48460;51.616;5.426;2023-05-12T15:38:10;101666.13;;;23.81;48.19
62420;BME280;48460;51.616;5.426;2023-05-12T15:40:47;101668.34;;;23.96;48.90
62420;BME280;48460;51.616;5.426;2023-05-12T15:43:18;101671.22;;;24.12;47.95
62420;BME280;48460;51.616;5.426;2023-05-12T15:45:55;101675.81;;;24.39;49.38
62420;BME280;48460;51.616;5.426;2023-05-12T15:48:57;101662.50;;;24.38;47.40
62420;BME280;48460;51.616;5.426;2023-05-12T15:51:49;101666.50;;;24.33;46.73
62420;BME280;48460;51.616;5.426;2023-05-12T15:54:45;101668.53;;;24.22;48.25
62420;BME280;48460;51.616;5.426;2023-05-12T15:57:31;101663.81;;;24.24;47.05
62420;BME280;48460;51.616;5.426;2023-05-12T16:00:05;101662.44;;;24.20;45.70
62420;BME280;48460;51.616;5.426;2023-05-12T16:02:36;101668.53;;;24.22;46.05
62420;BME280;48460;51.616;5.426;2023-05-12T16:05:05;101668.13;;;24.17;46.06
62420;BME280;48460;51.616;5.426;2023-05-12T16:07:38;101673.97;;;24.02;43.83
62420;BME280;48460;51.616;5.426;2023-05-12T16:10:17;101714.88;;;23.67;44.37
62420;BME280;48460;51.616;5.426;2023-05-12T16:12:47;101743.72;;;22.57;47.66
62420;BME280;48460;51.616;5.426;2023-05-12T16:15:23;101733.03;;;21.63;52.19
62420;BME280;48460;51.616;5.426;2023-05-12T16:18:09;101735.00;;;20.85;62.65
62420;BME280;48460;51.616;5.426;2023-05-12T16:20:55;101751.94;;;19.83;79.95
62420;BME280;48460;51.616;5.426;2023-05-12T16:23:23;101783.59;;;18.92;95.46
62420;BME280;48460;51.616;5.426;2023-05-12T16:25:48;101786.31;;;18.28;90.48
62420;BME280;48460;51.616;5.426;2023-05-12T16:28:14;101789.16;;;17.59;100.00
62420;BME280;48460;51.616;5.426;2023-05-12T16:30:43;101787.94;;;17.38;100.00
62420;BME280;48460;51.616;5.426;2023-05-12T16:33:09;101776.34;;;17.12;100.00
62420;BME280;48460;51.616;5.426;2023-05-12T16:35:35;101768.50;;;16.96;100.00
62420;BME280;48460;51.616;5.426;2023-05-12T16:38:01;101743.09;;;16.77;100.00
62420;BME280;48460;51.616;5.426;2023-05-12T16:40:26;101752.75;;;16.93;100.00
62420;BME280;48460;51.616;5.426;2023-05-12T16:42:52;101745.31;;;16.98;100.00
62420;BME280;48460;51.616;5.426;2023-05-12T16:45:19;101729.19;;;17.01;100.00
62420;BME280;48460;51.616;5.426;2023-05-12T16:47:46;101723.66;;;17.04;100.00
62420;BME280;48460;51.616;5.426;2023-05-12T16:50:13;101733.81;;;17.12;100.00
62420;BME280;48460;51.616;5.426;2023-05-12T16:52:39;101722.81;;;17.03;100.00
62420;BME280;48460;51.616;5.426;2023-05-12T16:55:05;101722.31;;;17.11;100.00
62420;BME280;48460;51.616;5.426;2023-05-12T16:57:31;101727.84;;;17.08;100.00
62420;BME280;48460;51.616;5.426;2023-05-12T16:59:56;101722.59;;;17.06;100.00
62420;BME280;48460;51.616;5.426;2023-05-12T17:02:22;101720.28;;;17.02;100.00
62420;BME280;48460;51.616;5.426;2023-05-12T17:04:48;101712.50;;;16.99;100.00
62420;BME280;48460;51.616;5.426;2023-05-12T17:07:14;101724.81;;;17.00;100.00
62420;BME280;48460;51.616;5.426;2023-05-12T17:09:40;101730.91;;;17.02;100.00
62420;BME280;48460;51.616;5.426;2023-05-12T17:12:09;101724.81;;;17.00;100.00
62420;BME280;48460;51.616;5.426;2023-05-12T17:14:35;101732.97;;;17.11;100.00
62420;BME280;48460;51.616;5.426;2023-05-12T17:17:09;101714.50;;;17.22;100.00
62420;BME280;48460;51.616;5.426;2023-05-12T17:19:34;101725.66;;;17.27;100.00
62420;BME280;48460;51.616;5.426;2023-05-12T17:22:05;101726.88;;;17.49;100.00
62420;BME280;48460;51.616;5.426;2023-05-12T17:24:31;101724.06;;;17.25;100.00
62420;BME280;48460;51.616;5.426;2023-05-12T17:26:58;101722.84;;;17.16;100.00
62420;BME280;48460;51.616;5.426;2023-05-12T17:29:27;101719.66;;;17.11;100.00
62420;BME280;48460;51.616;5.426;2023-05-12T17:31:52;101734.66;;;17.12;100.00
62420;BME280;48460;51.616;5.426;2023-05-12T17:34:23;101725.88;;;16.97;100.00
62420;BME280;48460;51.616;5.426;2023-05-12T17:37:01;101723.97;;;16.99;100.00
62420;BME280;48460;51.616;5.426;2023-05-12T17:39:28;101730.06;;;17.01;100.00
62420;BME280;48460;51.616;5.426;2023-05-12T17:42:04;101729.56;;;16.95;100.00
62420;BME280;48460;51.616;5.426;2023-05-12T17:44:32;101743.72;;;16.95;100.00
62420;BME280;48460;51.616;5.426;2023-05-12T17:46:58;101742.03;;;16.80;100.00
62420;BME280;48460;51.616;5.426;2023-05-12T17:49:29;101761.00;;;16.88;100.00
62420;BME280;48460;51.616;5.426;2023-05-12T17:51:54;101761.47;;;16.80;100.00
62420;BME280;48460;51.616;5.426;2023-05-12T17:54:25;101775.84;;;16.78;100.00
62420;BME280;48460;51.616;5.426;2023-05-12T17:56:53;101786.06;;;16.70;100.00
62420;BME280;48460;51.616;5.426;2023-05-12T17:59:20;101795.44;;;16.61;100.00
62420;BME280;48460;51.616;5.426;2023-05-12T18:01:46;101775.81;;;16.63;100.00
62420;BME280;48460;51.616;5.426;2023-05-12T18:04:12;101755.69;;;16.59;100.00
62420;BME280;48460;51.616;5.426;2023-05-12T18:06:53;101738.81;;;16.60;100.00
62420;BME280;48460;51.616;5.426;2023-05-12T18:12:44;101748.22;;;16.66;100.00
62420;BME280;48460;51.616;5.426;2023-05-12T18:18:46;101757.97;;;16.80;100.00
62420;BME280;48460;51.616;5.426;2023-05-12T18:27:51;101761.84;;;16.89;100.00
62420;BME280;48460;51.616;5.426;2023-05-12T18:30:24;101757.78;;;16.83;100.00
62420;BME280;48460;51.616;5.426;2023-05-12T18:32:52;101743.19;;;16.76;100.00
62420;BME280;48460;51.616;5.426;2023-05-12T18:35:28;101755.78;;;16.72;100.00
62420;BME280;48460;51.616;5.426;2023-05-12T18:38:01;101756.19;;;16.66;100.00
62420;BME280;48460;51.616;5.426;2023-05-12T18:40:31;101752.38;;;16.56;100.00
62420;BME280;48460;51.616;5.426;2023-05-12T18:42:58;101762.34;;;16.52;100.00
62420;BME280;48460;51.616;5.426;2023-05-12T18:45:27;101766.34;;;16.45;100.00
62420;BME280;48460;51.616;5.426;2023-05-12T18:47:55;101753.72;;;16.34;100.00
62420;BME280;48460;51.616;5.426;2023-05-12T18:50:22;101764.16;;;16.37;100.00
62420;BME280;48460;51.616;5.426;2023-05-12T18:52:50;101776.00;;;16.46;100.00
62420;BME280;48460;51.616;5.426;2023-05-12T18:55:25;101757.41;;;16.46;100.00
62420;BME280;48460;51.616;5.426;2023-05-12T18:57:58;101767.19;;;16.46;100.00
62420;BME280;48460;51.616;5.426;2023-05-12T19:00:30;101773.44;;;16.45;100.00
62420;BME280;48460;51.616;5.426;2023-05-12T19:02:58;101786.91;;;16.41;100.00
62420;BME280;48460;51.616;5.426;2023-05-12T19:05:24;101792.00;;;16.45;100.00
62420;BME280;48460;51.616;5.426;2023-05-12T19:07:50;101804.63;;;16.41;100.00
62420;BME280;48460;51.616;5.426;2023-05-12T19:10:16;101789.19;;;16.33;100.00
62420;BME280;48460;51.616;5.426;2023-05-12T19:12:44;101792.03;;;16.30;100.00
62420;BME280;48460;51.616;5.426;2023-05-12T19:15:20;101790.13;;;16.32;100.00
62420;BME280;48460;51.616;5.426;2023-05-12T19:17:46;101798.44;;;16.26;100.00
62420;BME280;48460;51.616;5.426;2023-05-12T19:20:12;101801.88;;;16.28;100.00
62420;BME280;48460;51.616;5.426;2023-05-12T19:22:43;101809.91;;;16.27;100.00
62420;BME280;48460;51.616;5.426;2023-05-12T19:25:30;101813.09;;;16.33;100.00
62420;BME280;48460;51.616;5.426;2023-05-12T19:28:13;101819.91;;;16.37;100.00
62420;BME280;48460;51.616;5.426;2023-05-12T19:34:16;101815.91;;;16.30;100.00
62420;BME280;48460;51.616;5.426;2023-05-12T19:37:18;101816.47;;;16.35;100.00
62420;BME280;48460;51.616;5.426;2023-05-12T19:43:05;101816.09;;;16.27;100.00
62420;BME280;48460;51.616;5.426;2023-05-12T19:45:34;101814.69;;;16.22;100.00
62420;BME280;48460;51.616;5.426;2023-05-12T19:48:04;101822.13;;;16.15;100.00
62420;BME280;48460;51.616;5.426;2023-05-12T19:50:43;101826.78;;;16.11;100.00
62420;BME280;48460;51.616;5.426;2023-05-12T19:53:19;101819.53;;;15.99;100.00
62420;BME280;48460;51.616;5.426;2023-05-12T19:59:02;101828.16;;;16.03;100.00
62420;BME280;48460;51.616;5.426;2023-05-12T20:01:28;101824.94;;;15.98;100.00
62420;BME280;48460;51.616;5.426;2023-05-12T20:03:59;101836.59;;;15.95;100.00
62420;BME280;48460;51.616;5.426;2023-05-12T20:06:39;101840.59;;;16.02;100.00
62420;BME280;48460;51.616;5.426;2023-05-12T20:09:19;101840.28;;;15.92;100.00
62420;BME280;48460;51.616;5.426;2023-05-12T20:11:54;101840.63;;;15.86;100.00
62420;BME280;48460;51.616;5.426;2023-05-12T20:30:32;101846.38;;;15.63;100.00
62420;BME280;48460;51.616;5.426;2023-05-12T20:37:06;101869.41;;;15.62;100.00
62420;BME280;48460;51.616;5.426;2023-05-12T20:40:22;101871.44;;;15.57;100.00
62420;BME280;48460;51.616;5.426;2023-05-12T20:53:35;101873.50;;;15.52;100.00
62420;BME280;48460;51.616;5.426;2023-05-12T21:00:04;101871.69;;;15.53;100.00
62420;BME280;48460;51.616;5.426;2023-05-12T21:02:49;101857.44;;;15.39;100.00
62420;BME280;48460;51.616;5.426;2023-05-12T21:16:27;101857.94;;;15.46;100.00
62420;BME280;48460;51.616;5.426;2023-05-12T21:22:45;101869.06;;;15.37;100.00
62420;BME280;48460;51.616;5.426;2023-05-12T21:29:06;101876.22;;;15.35;100.00
62420;BME280;48460;51.616;5.426;2023-05-12T21:32:02;101864.94;;;15.31;100.00
62420;BME280;48460;51.616;5.426;2023-05-12T21:35:13;101880.66;;;15.34;100.00
62420;BME280;48460;51.616;5.426;2023-05-12T21:38:08;101874.97;;;15.26;100.00
62420;BME280;48460;51.616;5.426;2023-05-12T21:44:48;101879.03;;;15.32;100.00
62420;BME280;48460;51.616;5.426;2023-05-12T21:50:38;101870.00;;;15.36;100.00
62420;BME280;48460;51.616;5.426;2023-05-12T21:56:49;101870.50;;;15.26;100.00
62420;BME280;48460;51.616;5.426;2023-05-12T21:59:47;101891.94;;;15.22;100.00
62420;BME280;48460;51.616;5.426;2023-05-12T22:09:09;101886.88;;;15.01;100.00
62420;BME280;48460;51.616;5.426;2023-05-12T22:11:57;101889.28;;;15.06;100.00
62420;BME280;48460;51.616;5.426;2023-05-12T22:17:52;101881.19;;;14.76;100.00
62420;BME280;48460;51.616;5.426;2023-05-12T22:38:05;101888.91;;;14.63;100.00
62420;BME280;48460;51.616;5.426;2023-05-12T22:40:48;101896.84;;;14.63;100.00
62420;BME280;48460;51.616;5.426;2023-05-12T22:43:24;101897.72;;;14.64;100.00
62420;BME280;48460;51.616;5.426;2023-05-12T22:46:25;101892.59;;;14.61;100.00
62420;BME280;48460;51.616;5.426;2023-05-12T22:56:05;101906.00;;;14.57;100.00
62420;BME280;48460;51.616;5.426;2023-05-12T22:59:08;101901.78;;;14.53;100.00
62420;BME280;48460;51.616;5.426;2023-05-12T23:01:57;101902.84;;;14.49;100.00
62420;BME280;48460;51.616;5.426;2023-05-12T23:21:28;101899.88;;;14.38;100.00
62420;BME280;48460;51.616;5.426;2023-05-12T23:34:24;101908.94;;;14.34;100.00
62420;BME280;48460;51.616;5.426;2023-05-12T23:40:27;101888.81;;;14.30;100.00
62420;BME280;48460;51.616;5.426;2023-05-12T23:43:28;101907.34;;;14.30;100.00
62420;BME280;48460;51.616;5.426;2023-05-12T23:46:32;101904.53;;;14.33;100.00
62420;BME280;48460;51.616;5.426;2023-05-12T23:49:24;101909.84;;;14.33;100.00
62420;BME280;48460;51.616;5.426;2023-05-12T23:52:22;101897.56;;;14.32;100.00
